Capitol Reef, Utah
Current Conditions -  °F | °C
As of 2:53 AM on Thursday 23 Oct 2014 (Local Time) from KBCE Reporting Station
Clear Clear  
Wind Chill: -5°   Ceiling: Unl
Heat Index: -1°   Visibility: 10mi
Dew Point: -4°   Wind: 8mph
Humidity: 76%   Direction: 290°WNW
Pressure: 30.32"   Gusts: NA
Location:  38.2517°N, 111.706°W
Report Text: KBCE 230853Z AUTO 29007KT 10SM CLR M01/M04 A3032 RMK AO2 SLP193 T10061044 53001 TSNO
Loading
Personal Weather Stations






























Interactive Weather Map
Tropical Storm Tracking
New forecast layout! Learn more

10-Day Weather Forecast

Advertisements
Track Severe Weather on mobile